Terminal Aerodrome Forecast
Issued by NWS

Home | Current Version | Previous Version | Text Only | Print | Product List | Glossary On
Versions: 1 2 3 4 5 6 7 8 9 10 11 12 13 14 15 16 17
966
FTAK31 PAJN 251125
TAFAJN
TAF
PAJN 251125Z 2512/2612 07006KT P6SM -SHRA FEW007 SCT030 OVC060
      TEMPO 2512/2516 2SM -SHRA BR BCFG BKN003 OVC030
     FM251600 10003KT 3SM -SHRA BR BCFG SCT003 OVC015
     FM251800 12006KT P6SM VCSH OVC050
     FM260000 24006KT P6SM BKN050
     FM260300 VRB02KT P6SM VCSH SCT030 OVC050
     FM260900 VRB02KT P6SM SCT050=

USA.gov is the U.S. government's official web portal to all federal, state and local government web resources and services.